Latest Weather Observations for Cooma Airport

IDN60801

Issued at 6:35 am EDT Sunday 26 October 2014 (issued every 30 minutes, with the page automatically refreshed every 10 minutes)

About weather observations | Map of weather stations | Latest weather observations for NSW | Other Formats
Station Details ID: 070217 Name: COOMA AIRPORT AWS Lat: -36.29 Lon: 148.97 Height: 930.0 m
Data from the previous 72 hours. | See also: Recent months for locations in New South Wales
Date/Time
EDT
Temp
°C
App
Temp
°C
Dew
Point
Rel
Hum
%
Delta-T
°C
Wind Press
QNH
hPa
Press
MSL
hPa
Rain
since 9 am
mm
Dir
 
Spd
km/h
Gust
km/h
Spd
kts
Gust
kts
26/06:30am 11.0 9.2 11.0 100 0.0 SW 11 17 6 9 1013.2 1012.0 0.0
26/06:00am 10.9 9.1 10.9 100 0.0 SSW 11 15 6 8 1012.6 1011.4 0.0
26/05:30am 11.1 8.6 11.1 100 0.0 SSW 15 20 8 11 1012.6 1011.4 0.0
26/05:00am 11.0 8.5 11.0 100 0.0 S 15 19 8 10 1012.5 1011.3 0.0
26/04:30am 11.2 9.1 11.2 100 0.0 S 13 15 7 8 1012.4 1011.2 0.0
26/04:00am 11.4 9.8 11.4 100 0.0 SSW 11 17 6 9 1012.4 1011.2 0.0
26/03:30am 11.3 9.6 11.3 100 0.0 SSW 11 13 6 7 1012.8 1011.6 0.0
26/03:00am 11.1 9.4 11.1 100 0.0 SSW 11 15 6 8 1013.2 1012.0 0.0
26/02:30am 11.3 10.0 11.3 100 0.0 SSW 9 11 5 6 1013.3 1012.1 0.0
26/02:00am 11.4 9.4 11.4 100 0.0 SSW 13 15 7 8 1013.9 1012.8 0.0
26/01:30am 11.6 9.6 11.4 99 0.1 SW 13 15 7 8 1014.6 1013.4 0.0
26/01:26am 11.5 9.4 11.3 99 0.1 SW 13 15 7 8 1014.7 1013.5 0.0
26/01:04am 11.3 9.4 10.5 95 0.4 SW 11 13 6 7 1014.8 1013.6 0.0
26/01:00am 11.5 9.7 10.7 95 0.4 SW 11 15 6 8 1014.9 1013.8 0.0
26/12:30am 14.0 13.6 12.4 90 0.9 N 6 7 3 4 1015.2 1014.1 0.0
26/12:00am 13.3 11.5 12.2 93 0.6 N 13 13 7 7 1015.5 1014.3 0.0
 
Date/Time
EDT
Temp
°C
App
Temp
°C
Dew
Point
Rel
Hum
%
Delta-T
°C
Wind Press
QNH
hPa
Press
MSL
hPa
Rain
since 9 am
mm
Dir
 
Spd
km/h
Gust
km/h
Spd
kts
Gust
kts
25/11:30pm 14.1 12.8 12.5 90 0.9 N 11 13 6 7 1015.7 1014.5 0.0
25/11:00pm 14.6 14.1 12.8 89 1.0 N 7 9 4 5 1015.9 1014.8 0.0
25/10:30pm 14.3 12.6 12.3 88 1.1 N 13 15 7 8 1015.9 1014.8 0.0
25/10:00pm 14.5 12.6 11.8 84 1.5 NNE 13 15 7 8 1016.1 1015.0 0.0
25/09:30pm 15.7 14.6 12.1 79 2.1 NNE 9 13 5 7 1016.2 1015.1 0.0
25/09:00pm 15.2 15.6 11.4 78 2.1 CALM 0 0 0 0 1016.1 1015.0 0.0
25/08:30pm 16.3 16.6 10.8 70 3.1 CALM 0 0 0 0 1016.0 1014.9 0.0
25/08:00pm 17.5 17.9 11.3 67 3.5 CALM 0 6 0 3 1015.9 1014.8 0.0
25/07:30pm 19.1 19.6 11.7 62 4.3 CALM 0 0 0 0 1015.8 1014.7 0.0
25/07:00pm 20.6 20.8 11.8 57 5.1 NNE 2 7 1 4 1015.0 1013.9 0.0
25/06:30pm 22.2 20.8 9.4 44 7.2 WNW 7 13 4 7 1015.6 1014.4 0.0
25/06:00pm 22.9 21.2 10.0 44 7.3 WNW 9 13 5 7 1015.7 1014.5 0.0
25/05:30pm 23.0 20.8 10.8 46 7.1 WNW 13 19 7 10 1015.5 1014.3 0.0
25/05:00pm 23.2 19.6 8.5 39 8.2 WNW 17 28 9 15 1015.5 1014.3 0.0
25/04:30pm 23.9 20.0 8.7 38 8.5 WNW 19 28 10 15 1015.8 1014.7 0.0
25/04:00pm 25.1 19.9 9.0 36 9.1 W 26 37 14 20 1015.9 1014.8 0.0
25/03:30pm 24.3 19.8 8.7 37 8.8 W 22 28 12 15 1016.1 1015.0 0.0
25/03:00pm 24.9 20.2 9.2 37 8.9 WSW 24 35 13 19 1016.0 1014.9 0.0
25/02:30pm 26.0 22.0 11.7 41 8.5 WSW 24 32 13 17 1016.3 1015.2 0.0
25/02:00pm 25.1 19.7 8.1 34 9.5 SW 26 37 14 20 1016.8 1015.7 0.0
25/01:30pm 24.4 20.1 9.2 38 8.6 SW 22 33 12 18 1017.0 1015.9 0.0
25/01:00pm 25.5 22.0 10.1 38 8.9 SW 19 28 10 15 1017.2 1016.1 0.0
25/12:30pm 25.8 23.1 11.6 41 8.4 WSW 17 26 9 14 1017.4 1016.3 0.0
25/12:00pm 24.7 21.6 10.2 40 8.4 SSW 17 24 9 13 1017.9 1016.8 0.0
25/11:30am 24.6 22.4 10.8 42 8.0 S 13 24 7 13 1018.2 1017.1 0.0
25/11:00am 24.0 22.2 9.6 40 8.2 SSW 9 20 5 11 1018.3 1017.2 0.0
25/10:30am 23.4 21.6 10.8 45 7.3 WNW 11 19 6 10 1018.5 1017.4 0.0
25/10:00am 21.5 20.2 11.2 52 5.9 NE 9 13 5 7 1018.7 1017.7 0.0
25/09:30am 19.6 17.8 12.1 62 4.4 NE 13 15 7 8 1018.7 1017.7 0.0
25/09:00am 17.5 15.1 10.1 62 4.1 NE 13 17 7 9 1018.7 1017.7 0.0
25/08:30am 16.0 13.6 10.1 68 3.3 NE 13 15 7 8 1018.8 1017.8 0.0
25/08:00am 14.2 11.7 8.4 68 3.1 NNE 11 13 6 7 1018.7 1017.7 0.0
25/07:30am 12.5 10.0 8.4 76 2.1 NE 11 13 6 7 1018.5 1017.4 0.0
25/07:00am 9.8 6.7 7.1 83 1.3 NE 13 17 7 9 1018.2 1017.1 0.0
25/06:30am 8.6 5.3 6.2 85 1.2 NNE 13 17 7 9 1018.2 1017.1 0.0
25/06:00am 7.3 4.8 4.8 84 1.2 NE 7 9 4 5 1018.0 1016.9 0.0
25/05:30am 8.8 6.6 6.4 85 1.2 NNE 7 9 4 5 1017.8 1016.7 0.0
25/05:00am 8.1 6.6 5.0 81 1.5 N 2 6 1 3 1017.5 1016.4 0.0
25/04:30am 8.5 7.4 5.1 79 1.6 CALM 0 0 0 0 1017.3 1016.2 0.0
25/04:00am 9.3 7.9 5.7 78 1.7 E 2 7 1 4 1017.0 1015.9 0.0
25/03:30am 9.2 8.2 5.6 78 1.7 CALM 0 0 0 0 1017.0 1015.9 0.0
25/03:00am 12.3 8.9 6.1 66 3.1 W 13 15 7 8 1016.9 1015.8 0.0
25/02:30am 9.5 6.4 5.5 76 1.9 W 11 15 6 8 1016.7 1015.5 0.0
25/02:21am 9.9 6.3 5.1 72 2.3 W 13 15 7 8 1016.5 1015.4 0.0
25/02:00am 14.9 10.5 6.5 57 4.3 W 19 22 10 12 1016.7 1015.5 0.0
25/01:30am 13.6 9.8 7.6 67 3.1 W 17 20 9 11 1016.5 1015.4 0.0
25/01:00am 9.9 5.5 6.6 80 1.6 WSW 19 20 10 11 1016.8 1015.7 0.0
25/12:30am 9.7 7.2 6.4 80 1.6 S 9 11 5 6 1016.8 1015.7 0.0
25/12:00am 11.6 9.9 7.7 77 2.0 SSW 6 9 3 5 1016.7 1015.5 0.0
 
Date/Time
EDT
Temp
°C
App
Temp
°C
Dew
Point
Rel
Hum
%
Delta-T
°C
Wind Press
QNH
hPa
Press
MSL
hPa
Rain
since 9 am
mm
Dir
 
Spd
km/h
Gust
km/h
Spd
kts
Gust
kts
24/11:30pm 13.5 11.0 8.4 71 2.7 NW 11 13 6 7 1016.8 1015.7 0.0
24/11:00pm 12.6 12.5 9.4 81 1.7 CALM 0 0 0 0 1016.8 1015.7 0.0
24/10:30pm 11.7 11.6 9.3 85 1.3 CALM 0 0 0 0 1016.8 1015.7 0.0
24/10:00pm 12.5 11.5 10.4 87 1.1 SW 6 9 3 5 1016.8 1015.7 0.0
24/09:30pm 13.2 13.4 10.6 84 1.4 CALM 0 0 0 0 1016.4 1015.3 0.0
24/09:00pm 14.8 15.4 11.8 82 1.7 CALM 0 0 0 0 1016.2 1015.1 0.0
24/08:30pm 15.7 16.2 11.7 77 2.3 CALM 0 0 0 0 1016.0 1014.9 0.0
24/08:00pm 17.4 17.4 12.3 72 2.9 SSW 4 6 2 3 1015.9 1014.8 0.0
24/07:30pm 18.9 19.1 12.9 68 3.5 NW 4 7 2 4 1015.5 1014.3 0.0
24/07:00pm 20.5 21.6 13.5 64 4.2 CALM 0 0 0 0 1015.2 1014.1 0.0
24/06:30pm 21.4 22.4 13.1 59 5.0 CALM 0 0 0 0 1015.2 1014.1 0.0
24/06:00pm 21.4 20.9 12.5 57 5.3 WSW 7 9 4 5 1015.2 1014.1 0.0
24/05:30pm 22.4 21.2 11.5 50 6.4 W 9 13 5 7 1015.1 1014.0 0.0
24/05:00pm 22.7 19.7 10.8 47 6.9 W 17 24 9 13 1015.1 1014.0 0.0
24/04:30pm 24.9 21.3 10.0 39 8.6 W 19 24 10 13 1015.0 1013.9 0.0
24/04:00pm 24.6 20.9 10.1 40 8.3 NNW 20 28 11 15 1014.8 1013.6 0.0
24/03:30pm 24.9 20.6 10.7 40 8.3 NW 24 35 13 19 1015.0 1013.9 0.0
24/03:00pm 25.0 21.3 10.1 39 8.6 NW 20 30 11 16 1015.1 1014.0 0.0
24/02:30pm 25.1 21.5 10.6 40 8.4 NW 20 32 11 17 1015.2 1014.1 0.0
24/02:00pm 24.1 19.1 9.7 40 8.2 NNW 26 37 14 20 1015.7 1014.5 0.0
24/01:30pm 24.1 19.4 10.7 43 7.8 NNW 26 35 14 19 1015.8 1014.7 0.0
24/01:00pm 23.4 18.7 9.4 41 7.9 NW 24 33 13 18 1016.2 1015.1 0.0
24/12:30pm 23.8 20.5 10.8 44 7.5 NNW 19 28 10 15 1016.5 1015.4 0.0
24/12:00pm 21.6 17.0 11.0 51 6.1 N 26 33 14 18 1016.8 1015.7 0.0
24/11:30am 22.7 17.8 11.4 49 6.6 NNW 28 39 15 21 1017.1 1016.0 0.0
24/11:00am 22.6 17.3 11.4 49 6.5 N 30 39 16 21 1017.6 1016.6 0.0
24/10:30am 20.5 15.8 12.0 58 5.0 NNE 28 39 15 21 1018.0 1016.9 0.0
24/10:00am 19.1 13.6 11.9 63 4.2 NNE 32 39 17 21 1018.4 1017.3 0.0
24/09:30am 18.1 12.2 11.0 63 4.0 NNE 33 43 18 23 1018.7 1017.7 0.0
24/09:00am 17.1 11.1 10.0 63 3.9 NE 32 39 17 21 1019.1 1018.0 6.0
24/08:30am 16.1 11.2 10.0 67 3.4 NE 26 33 14 18 1019.4 1018.3 6.0
24/08:00am 14.6 10.4 9.6 72 2.7 NE 22 28 12 15 1019.7 1018.7 6.0
24/07:30am 13.8 8.6 9.0 73 2.6 ENE 26 32 14 17 1019.5 1018.4 6.0
24/07:00am 11.0 6.6 8.8 86 1.1 NE 22 26 12 14 1019.3 1018.2 6.0
24/06:30am 9.8 5.4 8.9 94 0.5 NNE 22 24 12 13 1019.4 1018.3 6.0
24/06:00am 9.8 5.0 9.0 95 0.4 NNE 24 28 13 15 1019.3 1018.2 6.0
24/05:30am 9.5 5.7 8.9 96 0.3 NNE 19 22 10 12 1019.2 1018.1 6.0
24/05:00am 10.2 6.5 9.4 95 0.4 NE 19 20 10 11 1019.3 1018.2 5.8
24/04:30am 9.7 7.6 9.6 99 0.1 N 11 13 6 7 1019.2 1018.1 5.8
24/04:00am 9.7 6.8 9.6 99 0.1 NNE 15 17 8 9 1019.3 1018.2 5.8
24/03:30am 10.7 7.6 10.2 97 0.3 NE 17 20 9 11 1019.5 1018.4 5.8
24/03:00am 11.8 8.2 9.9 88 1.0 NE 19 24 10 13 1019.9 1018.9 5.8
24/02:30am 12.3 7.9 10.5 89 1.0 ENE 24 32 13 17 1019.9 1018.9 5.8
24/02:00am 11.4 7.8 10.5 94 0.5 NE 20 28 11 15 1020.4 1019.3 5.8
24/01:30am 11.0 8.3 10.5 97 0.3 NE 15 20 8 11 1021.1 1020.1 5.8
24/01:00am 9.9 9.5 9.8 99 0.1 NE 2 9 1 5 1021.5 1020.5 5.8
24/12:30am 9.8 7.9 9.2 96 0.3 NE 9 13 5 7 1021.7 1020.7 5.8
24/12:00am 10.3 8.3 10.0 98 0.2 N 11 13 6 7 1021.6 1020.6 5.8
 
Date/Time
EDT
Temp
°C
App
Temp
°C
Dew
Point
Rel
Hum
%
Delta-T
°C
Wind Press
QNH
hPa
Press
MSL
hPa
Rain
since 9 am
mm
Dir
 
Spd
km/h
Gust
km/h
Spd
kts
Gust
kts
23/11:30pm 10.2 8.2 10.0 99 0.1 NE 11 13 6 7 1021.8 1020.8 5.8
23/11:00pm 10.7 8.4 10.4 98 0.2 NNE 13 15 7 8 1021.9 1020.9 5.8
23/10:30pm 11.3 8.3 10.8 97 0.3 NE 17 17 9 9 1021.9 1020.9 5.8
23/10:00pm 12.0 9.0 10.7 92 0.7 N 17 20 9 11 1022.0 1021.0 5.8
23/09:30pm 12.1 9.5 10.7 91 0.8 N 15 19 8 10 1021.9 1020.9 5.8
23/09:00pm 13.2 9.2 10.4 83 1.5 N 22 32 12 17 1021.7 1020.7 5.8
23/08:30pm 13.4 8.4 10.9 85 1.4 N 28 37 15 20 1021.0 1020.0 5.8
23/08:06pm 13.7 7.9 10.7 82 1.7 E 32 39 17 21 1021.5 1020.5 5.6
23/08:00pm 13.8 9.2 11.0 83 1.5 E 26 32 14 17 1022.2 1021.2 4.8
23/07:45pm 14.8 11.8 10.8 77 2.2 SE 17 26 9 14 1023.2 1022.2 3.2
23/07:36pm 13.7 8.2 12.6 93 0.6 WSW 33 46 18 25 1023.9 1022.9 2.0
23/07:30pm 13.8 10.6 11.8 88 1.1 E 20 26 11 14 1022.0 1021.0 1.8
23/07:12pm 14.0 11.5 12.2 89 1.0 NE 17 24 9 13 1021.7 1020.7 1.6
23/07:00pm 14.3 11.8 12.2 87 1.2 NNE 17 20 9 11 1021.8 1020.8 1.4
23/06:54pm 14.5 13.1 12.2 86 1.3 N 11 20 6 11 1021.7 1020.7 1.2
23/06:30pm 15.1 11.9 11.9 81 1.8 NE 20 30 11 16 1021.3 1020.2 0.0
23/06:00pm 16.0 10.9 10.7 71 2.9 NE 28 37 15 20 1020.6 1019.6 0.0
23/05:30pm 16.4 10.7 11.1 71 3.0 E 32 44 17 24 1019.8 1018.8 0.0
23/05:00pm 17.5 10.4 10.9 65 3.7 ENE 39 46 21 25 1019.7 1018.7 0.0
23/04:30pm 19.9 14.7 11.7 59 4.7 ENE 30 37 16 20 1020.2 1019.1 0.0
23/04:00pm 21.4 16.4 9.6 47 6.6 E 26 41 14 22 1019.2 1018.1 0.0
23/03:30pm 23.0 18.0 7.9 38 8.3 E 24 28 13 15 1018.7 1017.7 0.0
23/03:00pm 25.2 23.2 6.4 30 10.2 NNW 6 11 3 6 1018.6 1017.6 0.0
23/02:30pm 24.9 22.8 8.4 35 9.2 NE 9 15 5 8 1018.8 1017.8 0.0
23/02:00pm 24.5 21.4 7.2 33 9.5 NE 13 20 7 11 1019.2 1018.1 0.0
23/01:30pm 24.3 22.0 7.4 34 9.3 ENE 9 20 5 11 1019.8 1018.8 0.0
23/01:00pm 23.9 21.4 8.3 37 8.7 NNE 11 17 6 9 1020.2 1019.1 0.0
23/12:30pm 23.5 20.4 8.8 39 8.2 NE 15 20 8 11 1020.4 1019.3 0.0
23/12:00pm 23.0 20.9 11.1 47 6.9 ENE 13 20 7 11 1020.7 1019.7 0.0
23/11:30am 22.7 21.5 11.7 49 6.4 NE 9 17 5 9 1021.1 1020.1 0.0
23/11:00am 21.8 20.0 9.3 45 7.0 NE 9 13 5 7 1021.5 1020.5 0.0
23/10:30am 21.4 22.0 12.0 55 5.5 CALM 0 0 0 0 1021.7 1020.7 0.0
23/10:00am 19.9 19.5 12.4 62 4.4 SSE 6 7 3 4 1021.9 1020.9 0.0
23/09:30am 18.4 17.9 12.2 67 3.6 NE 6 9 3 5 1021.9 1020.9 0.0
23/09:00am 16.0 13.7 10.5 70 3.0 NE 13 15 7 8 1021.7 1020.7 0.0
23/08:30am 14.4 12.3 9.8 74 2.5 NE 11 13 6 7 1021.6 1020.6 0.0
23/08:00am 14.0 12.9 10.8 81 1.8 NNE 7 9 4 5 1021.8 1020.8 0.0
23/07:30am 12.2 11.6 10.4 89 1.0 N 4 7 2 4 1021.7 1020.7 0.0
23/07:00am 8.9 8.2 8.6 98 0.2 SSE 2 7 1 4 1021.7 1020.7 0.0

Other Formats:

Comma delimited format used in spreadsheet applications
http://www.bom.gov.au/fwo/IDN60801/IDN60801.94921.axf

JavaScript Object Notation format (JSON) in row-major order
http://www.bom.gov.au/fwo/IDN60801/IDN60801.94921.json